The Dalles, OR

11:37 PM PDT on July 29, 2016 (GMT -0700)
17th and Jefferson ST | | Change Station
Active Advisory: Fire Weather Warning

Elev 486 ft 45.59 °N, 121.19 °W | Updated 25 seconds ago

Clear
Clear
83.8 °F
Feels Like 83 °F
N
3.5
Wind Variable Wind from North
Gusts 3.5 mph

Today
High -- | Low -- °F
--% Chance of Precip.
Yesterday
High -- | Low -- °F
Precip. -- in
Pressure 29.75 in
Visibility 10.0 miles
Clouds Clear
Heat Index 83 °F
Dew Point 57 °F
Humidity 40%
Rainfall 0.00 in
Snow Depth Not available.
5:45 AM 8:36 PM
Waning Crescent, 15% visible
METAR KDLS 300553Z AUTO 33006KT 10SM CLR 28/14 A2976 RMK AO2 SLP074 T02780139 10378 20278 53007
Pressure 29.75 in
Visibility 10.0 miles
Clouds Clear
Heat Index 83 °F
Dew Point 57 °F
Humidity 40%
Rainfall 0.00 in
Snow Depth Not available.
5:45 AM 8:36 PM
Waning Crescent, 15% visible
METAR KDLS 300553Z AUTO 33006KT 10SM CLR 28/14 A2976 RMK AO2 SLP074 T02780139 10378 20278 53007

10-Day Weather Forecast

Almanac

Astronomy

Jul. 29, 2016 Rise Set
Actual Time
Civil Twilight
Nautical Twilight
Astronomical Twilight
Moon
Length of Visible Light
Length of Day
Tomorrow will be .
, % of the Moon is Illuminated

Today's Extremes

State Highs State Lows

Community

WunderPhotos

Upload Photos

1,928,508 photos uploaded!

WunderBlog® & News

Nearby

Air Quality

  Air Quality AQ Index Pollutant
Not available.

Snow Depth

Station Depth Elevation

Earthquake Activity

City Distance Mag. Time & Date
Minimum magnitude displayed is 2.5.

Coastal Water Temperatures

Place Temperature

Stations

Nearby Weather Stations

Station Location Temp. Windchill Dew Point Humidity Wind Precip. Elev Updated Type
                   

Watches & Warnings

Fire Weather Warning
Issued: 2:23 PM PDT Jul. 29, 2016 – National Weather Service

... Red flag warning remains in effect until 9 PM PDT Saturday for
gusty winds and low humidity...

* affected area... in Washington and Oregon... fire zone 639
covering most of Klickitat County and the eastern Columbia
River gorge. In Oregon... fire zone 610 covering the east
slopes of the northern Oregon Cascades.

* Timing... winds will increase late this afternoon and evening
and will be stronger on Saturday.

* Wind... west to northwest wind 10 to 20 mph late today and 15
to 25 mph on Saturday. The strongest winds will be through the
Columbia River gorge where gusts to 35 mph are expected.

* Humidity... 12 to 22 percent.

* Impacts... any fires that develop will likely spread rapidly.
Outdoor burning is not recommended.

Precautionary/preparedness actions...

A red flag warning means that critical fire weather conditions
are either occurring now... .or will shortly. A combination of
strong winds... low relative humidity... and warm temperatures can
contribute to extreme fire behavior.